Time;durP1;ratioP1;P1;durP2;ratioP2;P2;SDS_P1;SDS_P2;PMS_P1;PMS_P2;Temp;Humidity;BMP_temperature;BMP_pressure;BME280_temperature;BME280_humidity;BME280_pressure;Samples;Min_cycle;Max_cycle;Signal;HPM_P1;HPM_P2
2022/01/05 00:07:58;;;;;;;5.83;0.70;;;;;;;-0.99;100.00;99684.53;9909252;30;20074;-91
2022/01/05 00:20:42;;;;;;;;;;;;;;;;;;;;;
2022/01/05 00:33:17;;;;;;;;;;;;;;;;;;;;;
2022/01/05 00:45:21;;;;;;;;;;;;;;;;;;;;;
2022/01/05 00:51:12;;;;;;;;;;;;;;;;;;;;;
2022/01/05 00:57:04;;;;;;;9.00;2.00;;;;;;;-6.06;100.00;98784.75;9661014;30;20045;-90
2022/01/05 01:03:39;;;;;;;;;;;;;;;;;;;;;
2022/01/05 01:21:49;;;;;;;;;;;;;;;;;;;;;
2022/01/05 01:27:50;;;;;;;;;;;;;;;;;;;;;
2022/01/05 01:45:58;;;;;;;;;;;;;;;;;;;;;
2022/01/05 01:51:55;;;;;;;;;;;;;;;;;;;;;
2022/01/05 01:57:27;;;;;;;;;;;;;;;;;;;;;
2022/01/05 02:15:07;;;;;;;;;;;;;;;;;;;;;
2022/01/05 02:21:22;;;;;;;;;;;;;;;;;;;;;
2022/01/05 02:27:14;;;;;;;;;;;;;;;;;;;;;
2022/01/05 02:39:35;;;;;;;;;;;;;;;;;;;;;
2022/01/05 02:58:12;;;;;;;;;;;;;;;;;;;;;
2022/01/05 03:04:38;;;;;;;10.60;2.23;;;;;;;-8.40;100.00;98186.63;9887412;29;20456;-92
2022/01/05 03:10:04;;;;;;;;;;;;;;;;;;;;;
2022/01/05 03:15:41;;;;;;;;;;;;;;;;;;;;;
2022/01/05 03:27:30;;;;;;;9.83;1.97;;;;;;;-4.95;100.00;98984.91;9911135;29;20039;-94
2022/01/05 03:39:39;;;;;;;;;;;;;;;;;;;;;
2022/01/05 03:45:35;;;;;;;;;;;;;;;;;;;;;
2022/01/05 03:51:23;;;;;;;9.60;2.53;;;;;;;-3.56;100.00;98938.53;9896308;29;20043;-91
2022/01/05 03:57:25;;;;;;;;;;;;;;;;;;;;;
2022/01/05 04:03:39;;;;;;;;;;;;;;;;;;;;;
2022/01/05 04:10:01;;;;;;;11.20;2.37;;;;;;;-5.82;100.00;98786.09;9824339;30;20052;-91
2022/01/05 04:21:08;;;;;;;13.27;2.57;;;;;;;-2.84;100.00;99149.38;9786501;30;20477;-94
2022/01/05 04:27:06;;;;;;;;;;;;;;;;;;;;;
2022/01/05 04:38:55;;;;;;;12.67;1.93;;;;;;;-4.54;100.00;98908.81;9921840;30;20035;-92
2022/01/05 04:44:07;;;;;;;11.63;1.83;;;;;;;0.98;100.00;99701.28;9885908;29;20122;-94
2022/01/05 04:49:13;;;;;;;12.83;2.03;;;;;;;-6.00;100.00;98794.69;9872689;29;20072;-93
2022/01/05 04:54:27;;;;;;;18.43;2.10;;;;;;;-3.42;100.00;99011.97;9888195;29;20069;-93
2022/01/05 04:59:33;;;;;;;12.50;2.78;;;;;;;-2.62;100.00;99184.16;9876596;29;20463;-92
2022/01/05 05:10:04;;;;;;;11.27;1.80;;;;;;;-4.13;100.00;98880.94;9877006;29;20070;-90
2022/01/05 05:15:15;;;;;;;;;;;;;;;;;;;;;
2022/01/05 05:20:41;;;;;;;12.57;2.10;;;;;;;-2.95;100.00;99017.28;9877876;29;20125;-91
2022/01/05 05:25:44;;;;;;;12.73;2.10;;;;;;;-1.71;100.00;99171.59;9883585;29;20035;-90
2022/01/05 05:31:08;;;;;;;8.07;1.40;;;;;;;-4.82;100.00;98754.09;9868865;29;20071;-90
2022/01/05 05:36:34;;;;;;;7.47;2.00;;;;;;;-3.29;100.00;98769.78;9885018;29;20040;-91
2022/01/05 05:42:04;;;;;;;10.80;1.83;;;;;;;-2.74;100.00;98948.81;9848286;29;20039;-94
2022/01/05 05:47:07;;;;;;;10.77;2.17;;;;;;;1.81;100.00;99659.38;9870211;29;20473;-93
2022/01/05 05:52:18;;;;;;;17.60;3.60;;;;;;;-2.87;100.00;98915.53;9870674;29;20050;-92
2022/01/05 05:57:27;;;;;;;17.02;1.90;;;;;;;-2.73;100.00;99048.25;9869673;29;20047;-94
2022/01/05 06:02:43;;;;;;;;;;;;;;;;;;;;;
2022/01/05 06:08:08;;;;;;;;;;;;;;;;;;;;;
2022/01/05 06:13:41;;;;;;;16.88;2.75;;;;;;;-4.03;100.00;98763.09;9882899;29;20107;-92
2022/01/05 06:19:34;;;;;;;16.93;4.43;;;;;;;1.85;100.00;99567.47;9867977;30;20554;-90
2022/01/05 06:24:42;;;;;;;26.55;7.43;;;;;;;-5.63;100.00;98440.56;9895571;29;20067;-91
2022/01/05 06:29:54;;;;;;;14.30;3.50;;;;;;;-3.19;100.00;98925.38;9880097;29;20039;-90
2022/01/05 06:34:55;;;;;;;25.35;3.33;;;;;;;-2.23;100.00;99174.31;9879819;29;20039;-87
2022/01/05 06:40:00;;;;;;;25.67;4.13;;;;;;;-4.16;100.00;98852.59;9865770;29;20481;-89
2022/01/05 06:45:01;;;;;;;17.80;3.50;;;;;;;1.89;100.00;99742.38;9865345;29;20130;-91
2022/01/05 06:50:04;;;;;;;23.52;3.10;;;;;;;-2.76;100.00;99075.59;9864901;29;20067;-86
2022/01/05 06:55:13;;;;;;;13.43;1.70;;;;;;;-3.98;100.00;98685.31;9849599;29;20065;-91
2022/01/05 07:06:49;;;;;;;23.75;5.20;;;;;;;-6.37;100.00;98306.78;9819532;30;20094;-91
2022/01/05 07:13:25;;;;;;;8.82;2.67;;;;;;;-4.96;100.00;98688.03;9874085;29;20142;-93
2022/01/05 07:19:39;;;;;;;;;;;;;;;;;;;;;
2022/01/05 07:25:53;;;;;;;;;;;;;;;;;;;;;
2022/01/05 07:44:58;;;;;;;;;;;;;;;;;;;;;
2022/01/05 07:57:20;;;;;;;14.18;3.15;;;;;;;-2.09;100.00;99099.59;9886669;29;20186;-92
2022/01/05 08:02:47;;;;;;;9.65;1.33;;;;;;;-3.32;100.00;98637.53;9817453;30;20139;-94
2022/01/05 08:09:02;;;;;;;;;;;;;;;;;;;;;
2022/01/05 08:14:26;;;;;;;11.70;1.58;;;;;;;0.96;100.00;99357.31;9831754;30;20113;-92
2022/01/05 08:32:21;;;;;;;13.27;1.93;;;;;;;-4.24;100.00;98446.31;9724699;30;20108;-93
2022/01/05 08:37:50;;;;;;;16.70;3.17;;;;;;;-0.19;100.00;99382.28;9668456;30;20050;-93
2022/01/05 09:01:44;;;;;;;15.75;2.47;;;;;;;-2.72;100.00;98930.56;9773621;30;20080;-94
2022/01/05 09:07:00;;;;;;;12.82;1.67;;;;;;;-0.59;100.00;99262.84;9851449;29;20059;-91
2022/01/05 09:12:49;;;;;;;7.78;1.80;;;;;;;2.84;100.00;99635.78;9855666;29;20042;-93
2022/01/05 09:17:59;;;;;;;15.25;1.73;;;;;;;-1.46;100.00;99113.09;9884232;29;20039;-92
2022/01/05 09:23:22;;;;;;;18.88;2.55;;;;;;;-1.29;100.00;99075.56;9872822;29;20047;-91
2022/01/05 09:28:52;;;;;;;;;;;;;;;;;;;;;
2022/01/05 09:52:48;;;;;;;18.85;3.10;;;;;;;-3.34;100.00;98771.47;9818927;30;20017;-95
2022/01/05 10:05:08;;;;;;;;;;;;;;;;;;;;;
2022/01/05 10:10:32;;;;;;;20.65;4.15;;;;;;;-2.02;100.00;98720.19;9867144;29;20433;-90
2022/01/05 10:22:02;;;;;;;15.30;3.65;;;;;;;0.09;100.00;99008.41;9826425;29;20123;-96
2022/01/05 10:33:44;;;;;;;20.08;2.55;;;;;;;0.53;100.00;99119.97;9887968;30;20035;-95
2022/01/05 10:38:54;;;;;;;18.75;2.65;;;;;;;0.57;100.00;99180.72;9864064;30;20490;-94
2022/01/05 10:44:10;;;;;;;18.02;2.70;;;;;;;4.80;100.00;99758.78;9838536;29;20054;-89
2022/01/05 10:49:34;;;;;;;16.15;2.97;;;;;;;4.86;100.00;99924.16;9878499;29;20404;-88
2022/01/05 10:54:35;;;;;;;13.52;2.50;;;;;;;0.90;100.00;99270.72;9867332;29;20039;-88
2022/01/05 10:59:38;;;;;;;16.67;2.55;;;;;;;-1.86;100.00;98622.47;9863158;29;20081;-93
2022/01/05 11:04:44;;;;;;;24.52;3.65;;;;;;;1.23;100.00;99174.50;9866678;29;20142;-92
2022/01/05 11:10:30;;;;;;;;;;;;;;;;;;;;;
2022/01/05 11:15:58;;;;;;;16.02;2.72;;;;;;;1.07;100.00;99363.84;9883658;29;20093;-95
2022/01/05 11:21:34;;;;;;;;;;;;;;;;;;;;;
2022/01/05 11:27:07;;;;;;;19.02;4.65;;;;;;;5.81;100.00;99813.47;9868958;29;20097;-93
2022/01/05 11:32:14;;;;;;;23.55;5.50;;;;;;;1.67;100.00;99189.34;9899381;29;20039;-94
2022/01/05 11:37:15;;;;;;;30.17;5.75;;;;;;;-0.21;100.00;99087.72;9881298;29;20523;-90
2022/01/05 11:42:27;;;;;;;22.20;4.53;;;;;;;4.27;100.00;99836.16;9872970;29;20079;-94
2022/01/05 11:47:29;;;;;;;26.45;4.07;;;;;;;-1.23;100.00;98790.38;9870314;29;20047;-90
2022/01/05 11:53:00;;;;;;;20.42;2.95;;;;;;;6.33;100.00;99852.53;9862122;29;20047;-90
2022/01/05 11:58:14;;;;;;;22.60;3.63;;;;;;;6.38;100.00;99860.81;9863248;29;20050;-90
2022/01/05 12:03:49;;;;;;;21.50;2.97;;;;;;;3.93;100.00;99511.91;9866783;29;20055;-94
2022/01/05 12:08:51;;;;;;;24.23;4.82;;;;;;;1.64;100.00;99233.22;9876015;29;20059;-90
2022/01/05 12:13:52;;;;;;;20.77;3.75;;;;;;;5.04;100.00;99977.72;9863856;29;20078;-90
2022/01/05 12:19:03;;;;;;;18.05;3.15;;;;;;;1.55;100.00;99224.63;9869792;29;20039;-89
2022/01/05 12:24:09;;;;;;;21.42;3.03;;;;;;;1.51;100.00;99276.84;9870004;29;20039;-94
2022/01/05 12:29:11;;;;;;;15.50;2.75;;;;;;;-1.07;100.00;98868.03;9870048;29;20088;-93
2022/01/05 12:34:12;;;;;;;23.83;4.10;;;;;;;-0.50;100.00;99072.25;9869643;29;20089;-94
2022/01/05 12:39:13;;;;;;;22.92;4.22;;;;;;;1.79;100.00;99471.53;9870048;29;20054;-89
2022/01/05 12:44:18;;;;;;;14.35;2.50;;;;;;;4.51;100.00;99753.31;9868605;29;20046;-89
2022/01/05 12:49:22;;;;;;;16.25;2.35;;;;;;;1.82;100.00;99376.09;9884870;29;20027;-93
2022/01/05 12:54:42;;;;;;;18.17;2.22;;;;;;;3.97;100.00;99804.44;9875526;29;20036;-95
2022/01/05 12:59:49;;;;;;;14.75;2.10;;;;;;;3.28;100.00;99600.09;10248874;24;20063;-90
2022/01/05 13:06:14;;;;;;;12.38;2.80;;;;;;;6.63;100.00;99956.88;9875837;29;20043;-94
2022/01/05 13:11:30;;;;;;;19.52;2.42;;;;;;;4.20;100.00;99721.88;9915606;29;20035;-87
2022/01/05 13:16:30;;;;;;;18.33;2.60;;;;;;;3.99;100.00;99558.06;9854160;29;20126;-87
2022/01/05 13:21:44;;;;;;;20.35;2.80;;;;;;;4.04;100.00;99652.63;9848130;30;20579;-87
2022/01/05 13:27:04;;;;;;;23.83;3.60;;;;;;;5.57;100.00;99905.63;9834584;29;20126;-88
2022/01/05 13:32:24;;;;;;;21.17;3.67;;;;;;;0.49;100.00;99308.31;9849652;30;20528;-91
2022/01/05 13:37:46;;;;;;;22.45;3.60;;;;;;;1.29;100.00;99510.59;9846158;29;20464;-90
2022/01/05 13:43:02;;;;;;;16.45;3.28;;;;;;;4.74;100.00;99842.38;9865504;30;20417;-93
2022/01/05 13:48:37;;;;;;;19.08;2.40;;;;;;;4.46;100.00;99995.75;9825162;30;20525;-89
2022/01/05 13:53:46;;;;;;;12.95;2.47;;;;;;;-1.46;100.00;98994.31;9838247;30;20036;-95
2022/01/05 13:58:54;;;;;;;8.07;2.25;;;;;;;1.90;100.00;99576.59;9833580;30;20410;-89
2022/01/05 14:04:26;;;;;;;12.15;2.33;;;;;;;5.40;100.00;100082.19;9830319;30;20109;-88
2022/01/05 14:10:13;;;;;;;11.20;1.88;;;;;;;5.20;100.00;100107.13;9832130;30;20104;-89
2022/01/05 14:15:25;;;;;;;9.55;1.67;;;;;;;-3.34;100.00;99083.59;9838772;30;20482;-89
2022/01/05 14:48:13;;;;;;;24.90;5.30;;;;;;;4.45;100.00;100187.63;2390038;24;20105;-96
2022/01/05 14:53:46;;;;;;;19.13;3.15;;;;;;;-1.15;100.00;99443.56;9747572;30;20065;-89
2022/01/05 14:58:48;;;;;;;25.75;5.15;;;;;;;-0.69;100.00;99518.19;9777309;30;20504;-91
2022/01/05 15:03:58;;;;;;;20.20;3.40;;;;;;;0.72;100.00;99843.97;9822284;30;20086;-91
2022/01/05 15:09:04;;;;;;;23.38;3.90;;;;;;;-2.42;100.00;99334.19;9793566;30;20064;-92
2022/01/05 15:14:21;;;;;;;;;;;;;;;;;;;;;
2022/01/05 15:19:25;;;;;;;34.95;4.95;;;;;;;1.05;100.00;99966.84;9830680;30;20126;-91
2022/01/05 15:24:25;;;;;;;19.58;3.92;;;;;;;-0.89;100.00;99668.75;9826141;30;20256;-91
2022/01/05 15:29:27;;;;;;;30.08;5.78;;;;;;;-1.35;100.00;99558.88;9825158;30;20031;-89
2022/01/05 15:34:27;;;;;;;33.30;6.55;;;;;;;-0.38;100.00;99811.34;9826548;30;20042;-90
2022/01/05 15:39:28;;;;;;;25.75;5.15;;;;;;;-1.09;100.00;99642.59;9836757;29;20039;-89
2022/01/05 15:44:31;;;;;;;31.75;5.78;;;;;;;2.24;100.00;100295.81;9825541;30;20169;-91
2022/01/05 15:49:35;;;;;;;28.27;5.57;;;;;;;0.56;100.00;100034.06;9837148;29;20059;-89
2022/01/05 15:54:40;;;;;;;27.77;5.57;;;;;;;1.62;100.00;100019.38;9871395;29;20049;-87
2022/01/05 16:05:09;;;;;;;17.38;3.28;;;;;;;0.25;100.00;99837.06;9889058;30;20048;-89
2022/01/05 16:16:02;;;;;;;26.23;3.78;;;;;;;-3.16;100.00;99548.63;9874551;29;20513;-88
2022/01/05 16:21:13;;;;;;;15.43;2.88;;;;;;;-2.05;100.00;99530.44;9870587;29;20041;-93
2022/01/05 16:26:17;;;;;;;15.98;3.22;;;;;;;-2.28;100.00;99524.56;9868195;29;20127;-94
2022/01/05 16:37:23;;;;;;;;;;;;;;;;;;;;;
2022/01/05 16:42:47;;;;;;;27.33;5.00;;;;;;;2.22;100.00;100473.38;9856990;30;20059;-92
2022/01/05 16:47:54;;;;;;;19.10;3.83;;;;;;;-0.56;100.00;99957.13;9805390;30;20418;-95
2022/01/05 16:52:55;;;;;;;26.58;3.58;;;;;;;-2.32;100.00;99561.03;9822298;30;20062;-83
2022/01/05 17:03:29;;;;;;;33.65;4.70;;;;;;;2.43;100.00;100301.16;9878914;29;20051;-91
2022/01/05 17:08:47;;;;;;;38.45;7.82;;;;;;;-0.95;100.00;99839.78;9837659;30;20521;-94
2022/01/05 17:13:57;;;;;;;23.05;4.35;;;;;;;2.26;100.00;100386.06;9848005;30;20038;-95
2022/01/05 17:19:36;;;;;;;;;;;;;;;;;;;;;
2022/01/05 17:24:59;;;;;;;;;;;;;;;;;;;;;
2022/01/05 17:30:36;;;;;;;25.92;4.32;;;;;;;1.79;100.00;100500.09;9851333;30;20513;-90
2022/01/05 17:41:56;;;;;;;;;;;;;;;;;;;;;
2022/01/05 17:47:04;;;;;;;32.65;6.97;;;;;;;-2.38;100.00;99718.19;9847279;30;20048;-89
2022/01/05 17:52:43;;;;;;;33.55;5.35;;;;;;;-1.94;100.00;99611.75;9857258;30;20052;-93
2022/01/05 17:58:34;;;;;;;;;;;;;;;;;;;;;
2022/01/05 18:04:02;;;;;;;20.85;3.00;;;;;;;-1.40;100.00;99885.34;9880935;29;20063;-89
2022/01/05 18:09:37;;;;;;;;;;;;;;;;;;;;;
2022/01/05 18:15:37;;;;;;;;;;;;;;;;;;;;;
2022/01/05 18:21:09;;;;;;;;;;;;;;;;;;;;;
2022/01/05 18:26:20;;;;;;;13.57;2.30;;;;;;;-1.48;100.00;99911.47;9793600;30;20052;-89
2022/01/05 18:31:23;;;;;;;13.90;2.95;;;;;;;1.47;100.00;100279.22;9793208;30;20057;-94
2022/01/05 18:36:37;;;;;;;7.78;2.35;;;;;;;3.43;100.00;100872.09;9798918;30;20625;-95
2022/01/05 18:42:04;;;;;;;15.40;2.13;;;;;;;-0.28;100.00;100076.00;9799404;30;20130;-94
2022/01/05 18:47:25;;;;;;;11.18;1.77;;;;;;;-1.61;100.00;99919.50;9805933;30;20465;-92
2022/01/05 18:52:26;;;;;;;15.80;2.47;;;;;;;1.40;100.00;100646.22;9868456;29;20058;-92
2022/01/05 18:57:27;;;;;;;18.48;3.35;;;;;;;-1.47;100.00;100075.13;9878522;29;20055;-88
2022/01/05 19:02:36;;;;;;;16.63;3.63;;;;;;;0.60;100.00;100404.56;9860561;29;20057;-94
2022/01/05 19:07:37;;;;;;;18.30;2.80;;;;;;;0.47;100.00;100323.22;9873329;29;20074;-95
2022/01/05 19:12:38;;;;;;;14.45;2.38;;;;;;;-1.15;100.00;100123.34;9886754;29;20042;-94
2022/01/05 19:17:39;;;;;;;15.30;2.30;;;;;;;-2.11;100.00;99905.22;9872339;29;20043;-95
2022/01/05 19:22:40;;;;;;;18.63;3.67;;;;;;;-2.49;100.00;99851.63;9899670;29;20046;-93
2022/01/05 19:27:40;;;;;;;18.20;3.72;;;;;;;-2.45;100.00;99923.81;9878398;29;20189;-93
2022/01/05 19:33:09;;;;;;;;;;;;;;;;;;;;;
2022/01/05 19:38:44;;;;;;;22.67;3.37;;;;;;;-4.44;100.00;99570.06;9888654;29;20523;-90
2022/01/05 19:43:45;;;;;;;17.70;2.75;;;;;;;-2.01;100.00;100097.22;9866305;29;20055;-90
2022/01/05 19:48:53;;;;;;;22.02;3.28;;;;;;;-5.57;100.00;99675.75;9878423;29;20058;-90
2022/01/05 19:54:28;;;;;;;17.50;2.35;;;;;;;2.42;100.00;100741.53;9864358;29;20446;-93
2022/01/05 20:00:20;;;;;;;;;;;;;;;;;;;;;
2022/01/05 20:06:08;;;;;;;13.48;3.05;;;;;;;1.05;100.00;100645.38;9778219;30;20128;-91
2022/01/05 20:11:45;;;;;;;23.02;4.18;;;;;;;-1.84;100.00;100212.00;9711388;30;20044;-92
2022/01/05 20:17:33;;;;;;;;;;;;;;;;;;;;;
2022/01/05 20:23:18;;;;;;;14.53;2.97;;;;;;;-2.87;100.00;100027.00;9616686;30;19924;-92
2022/01/05 20:28:44;;;;;;;17.23;3.10;;;;;;;-1.45;100.00;100243.16;9701438;30;20508;-93
2022/01/05 20:40:38;;;;;;;;;;;;;;;;;;;;;
2022/01/05 20:46:31;;;;;;;18.70;2.90;;;;;;;-5.62;100.00;99493.97;9890891;29;20504;-93
2022/01/05 20:52:21;;;;;;;;;;;;;;;;;;;;;
2022/01/05 20:58:05;;;;;;;;;;;;;;;;;;;;;
2022/01/05 21:03:34;;;;;;;6.05;1.38;;;;;;;-2.76;100.00;100101.94;9824908;30;20049;-89
2022/01/05 21:09:26;;;;;;;7.37;1.47;;;;;;;-1.94;100.00;100319.38;9816144;30;20052;-90
2022/01/05 21:14:46;;;;;;;32.92;3.83;;;;;;;-3.36;100.00;99984.50;9768313;30;20048;-91
2022/01/05 21:20:27;;;;;;;;;;;;;;;;;;;;;
2022/01/05 21:25:48;;;;;;;16.17;2.40;;;;;;;-2.61;100.00;99988.75;9811834;30;20054;-89
2022/01/05 21:30:56;;;;;;;16.37;2.53;;;;;;;-4.21;100.00;99805.56;9814343;29;20047;-90
2022/01/05 21:36:11;;;;;;;20.00;2.90;;;;;;;-4.48;100.00;99729.94;9870474;29;20134;-90
2022/01/05 21:41:11;;;;;;;17.90;3.67;;;;;;;-0.10;100.00;100608.50;9868365;29;20047;-89
2022/01/05 21:52:08;;;;;;;19.35;3.28;;;;;;;-2.03;100.00;100366.31;9896099;29;20066;-90
2022/01/05 21:57:16;;;;;;;26.42;5.63;;;;;;;-1.76;100.00;100250.69;9882020;29;20039;-90
2022/01/05 22:02:22;;;;;;;23.93;3.20;;;;;;;0.60;100.00;100604.19;9870882;29;20047;-93
2022/01/05 22:07:30;;;;;;;22.02;4.10;;;;;;;2.85;100.00;101173.56;9842928;30;20520;-89
2022/01/05 22:12:35;;;;;;;35.85;3.80;;;;;;;-2.60;100.00;100087.44;9858792;30;20036;-89
2022/01/05 22:18:03;;;;;;;15.30;2.83;;;;;;;-1.88;100.00;100491.31;9831047;30;20032;-90
2022/01/05 22:23:23;;;;;;;18.60;2.95;;;;;;;1.36;100.00;100831.28;9846163;30;20050;-89
2022/01/05 22:29:02;;;;;;;23.90;4.28;;;;;;;-1.48;100.00;100502.72;9848467;30;20066;-91
2022/01/05 22:34:32;;;;;;;20.00;3.10;;;;;;;-2.01;100.00;100468.66;9861335;30;20405;-91
2022/01/05 22:39:56;;;;;;;16.35;2.75;;;;;;;-0.31;100.00;100537.09;9843852;30;20066;-91
2022/01/05 22:45:06;;;;;;;11.40;2.85;;;;;;;2.38;100.00;101286.41;9845604;30;20047;-90
2022/01/05 22:50:21;;;;;;;16.90;1.70;;;;;;;-1.99;100.00;100364.09;9843079;30;20056;-90
2022/01/05 22:55:33;;;;;;;13.20;2.40;;;;;;;-1.03;100.00;100563.00;9844430;30;20417;-90
2022/01/05 23:00:54;;;;;;;10.27;1.40;;;;;;;-2.31;100.00;100372.34;9845092;30;20047;-91
2022/01/05 23:06:09;;;;;;;7.03;1.57;;;;;;;-3.02;100.00;100518.97;9843350;30;20039;-92
2022/01/05 23:23:09;;;;;;;12.37;1.63;;;;;;;-1.20;100.00;100798.38;9839823;30;20191;-89
2022/01/05 23:40:57;;;;;;;;;;;;;;;;;;;;;
2022/01/05 23:46:21;;;;;;;12.37;2.70;;;;;;;-3.89;100.00;100367.22;9796083;30;20068;-93
2022/01/05 23:51:51;;;;;;;;;;;;;;;;;;;;;
2022/01/05 23:57:40;;;;;;;;;;;;;;;;;;;;;
